Padre Marcos, Brazil
Current Conditions -  °F | °C
As of 6:00 PM on Thursday 27 Nov 2014 (Local Time) from SBJU Reporting Station
Scattered Clouds Scattered Clouds  
Wind Chill: 90°   Ceiling: Unl
Heat Index: 93°   Visibility: 6mi
Dew Point: 68°   Wind: 8mph
Humidity: 49%   Direction: 70°ENE
Pressure: 29.91"   Gusts: NA
Location:  7.36°S, 40.91°W
Report Text: SBJU 272100Z 07007KT 9999 SCT022 32/20 Q1013
Loading
Personal Weather Stations






























Interactive Weather Map New forecast layout! Learn more

10-Day Weather Forecast

Advertisements
Track Severe Weather on mobile